Arrasate-Mondragon, Spain
Current Conditions -  °F | °C
As of 5:30 AM on Monday 26 Jan 2015 (Local Time) from LEVT Reporting Station
Broken Clouds Broken Clouds  
Wind Chill: 31°   Ceiling: 3200
Heat Index: 36°   Visibility: 6mi
Dew Point: 34°   Wind: 6mph
Humidity: 93%   Direction: 300°WNW
Pressure: 30.45"   Gusts: NA
Location:  43.06°N, 2.49°W
Report Text: LEVT 260430Z 30005KT 9999 BKN032 02/01 Q1031
Loading
Personal Weather Stations






























Interactive Weather Map New forecast layout! Learn more

10-Day Weather Forecast

Advertisements
Track Severe Weather on mobile